This is the latest recevied weather packets stored in our database for station/object OK2ZAW-21. If no packets are shown the sender has not sent any weather packets the latest 10 day(s).
| Time | Temp. | Humidity | Pressure | Rain* | Wind** | Luminosity | Snow |
|---|---|---|---|---|---|---|---|
| 1777958490 | 15.56° C | 45% | 1011.6 hPa | - | - | 438 W/m² | - |
| 1777958430 | 15.56° C | 45% | 1011.6 hPa | - | - | 438 W/m² | - |
| 1777908905 | 22.78° C | 41% | 1015.4 hPa | - | - | 438 W/m² | - |
| 1777908741 | 22.78° C | 41% | 1015.4 hPa | - | - | 438 W/m² | - |
| 1777908590 | 22.78° C | 41% | 1015.5 hPa | - | - | 438 W/m² | - |
| 1777908584 | 22.78° C | 41% | 1015.5 hPa | - | - | 438 W/m² | - |
| 1777908471 | 22.78° C | 43% | 1015.4 hPa | - | - | 438 W/m² | - |
| 1777908375 | 22.22° C | 43% | 1015.4 hPa | - | - | 438 W/m² | - |
| 1777908369 | 22.22° C | 43% | 1015.4 hPa | - | - | 438 W/m² | - |
| 1777908273 | 21.67° C | 45% | 1015.4 hPa | - | - | 438 W/m² | - |
| 1777908203 | 21.67° C | 44% | 1015.5 hPa | - | - | 438 W/m² | - |
| 1777908197 | 21.67° C | 44% | 1015.5 hPa | - | - | 438 W/m² | - |
| 1777908119 | 21.67° C | 44% | 1015.4 hPa | - | - | 438 W/m² | - |
| 1777908031 | 21.67° C | 44% | 1015.4 hPa | - | - | 438 W/m² | - |
| 1777907925 | 21.11° C | 44% | 1015.4 hPa | - | - | 438 W/m² | - |
| 1777907919 | 21.11° C | 44% | 1015.4 hPa | - | - | 438 W/m² | - |
| 1777907751 | 21.11° C | 44% | 1015.4 hPa | - | - | 438 W/m² | - |
| 1777907332 | 21.67° C | 42% | 1015.5 hPa | - | - | 438 W/m² | - |
| 1777907325 | 21.67° C | 42% | 1015.5 hPa | - | - | 438 W/m² | - |
| 1777907155 | 22.78° C | 41% | 1015.5 hPa | - | - | 438 W/m² | - |
| 1777907010 | 22.78° C | 41% | 1015.5 hPa | - | - | 438 W/m² | - |
| 1777906929 | 23.33° C | 40% | 1015.6 hPa | - | - | 438 W/m² | - |
| 1777906810 | 23.89° C | 39% | 1015.6 hPa | - | - | 438 W/m² | - |
| 1777906707 | 23.89° C | 40% | 1015.6 hPa | - | - | 438 W/m² | - |
| 1777906700 | 23.89° C | 40% | 1015.6 hPa | - | - | 438 W/m² | - |
* Rain since midnight (hover to see other rain measurements)
** Current wind speed in m/s (hover to see current wind gust speed)